Time;durP1;ratioP1;P1;durP2;ratioP2;P2;SDS_P1;SDS_P2;PMS_P1;PMS_P2;Temp;Humidity;BMP_temperature;BMP_pressure;BME280_temperature;BME280_humidity;BME280_pressure;Samples;Min_cycle;Max_cycle;Signal;HPM_P1;HPM_P2
2021/06/15 03:11:20;;;;;;;;;;;;;;;9.11;86.35;99776.63;1453641;26;19926;-89
2021/06/15 03:13:49;;;;;;;;;;;;;;;9.10;87.14;99777.53;4982166;28;19953;-91
2021/06/15 03:16:17;;;;;;;;;;;;;;;9.09;86.83;99779.31;4981963;28;19929;-89
2021/06/15 03:18:51;;;;;;;;;;;;;;;9.07;87.04;99777.66;4982247;28;19926;-84
2021/06/15 03:21:18;;;;;;;;;;;;;;;9.12;87.33;99778.31;4965379;28;19953;-90
2021/06/15 03:23:52;;;;;;;;;;;;;;;9.04;87.46;99783.88;4983038;28;19922;-89
2021/06/15 03:26:21;;;;;;;;;;;;;;;9.12;86.92;99778.31;4983205;28;20312;-88
2021/06/15 03:29:08;;;;;;;;;;;;;;;9.12;87.61;99780.97;4984018;28;19922;-90
2021/06/15 03:31:37;;;;;;;;;;;;;;;9.07;87.73;99778.50;4983050;28;19918;-90
2021/06/15 03:34:03;;;;;;;;;;;;;;;9.08;87.80;99793.44;4982458;28;19922;-88
2021/06/15 03:36:32;;;;;;;;;;;;;;;9.10;86.93;99790.75;4966041;28;19918;-91
2021/06/15 03:38:58;;;;;;;;;;;;;;;9.11;86.67;99781.91;4982967;28;19929;-89
2021/06/15 03:41:24;;;;;;;;;;;;;;;9.14;86.71;99787.06;4965309;28;20193;-89
2021/06/15 03:43:52;;;;;;;;;;;;;;;9.09;87.50;99789.00;5001694;28;19922;-90
2021/06/15 03:46:18;;;;;;;;;;;;;;;9.09;87.38;99786.38;5001332;28;19919;-89
2021/06/15 03:48:46;;;;;;;;;;;;;;;9.12;87.24;99783.63;5001522;28;19929;-91
2021/06/15 03:51:12;;;;;;;;;;;;;;;9.06;87.66;99784.72;4999774;28;19921;-90
2021/06/15 03:53:38;;;;;;;;;;;;;;;9.12;87.57;99786.25;5001195;28;19922;-89
2021/06/15 03:56:04;;;;;;;;;;;;;;;9.01;88.03;99786.66;5001260;28;19937;-91
2021/06/15 03:58:31;;;;;;;;;;;;;;;9.08;87.65;99789.94;5001720;28;20313;-90
2021/06/15 04:00:57;;;;;;;;;;;;;;;9.04;87.60;99786.53;5001176;28;20208;-90
2021/06/15 04:03:23;;;;;;;;;;;;;;;9.08;88.07;99788.16;5001267;28;20174;-89
2021/06/15 04:05:50;;;;;;;;;;;;;;;9.09;87.56;99789.00;5000323;28;19977;-90
2021/06/15 04:08:16;;;;;;;;;;;;;;;9.07;87.81;99782.94;5000934;28;19926;-90
2021/06/15 04:10:43;;;;;;;;;;;;;;;9.05;88.01;99792.69;5000668;28;19933;-90
2021/06/15 04:13:08;;;;;;;;;;;;;;;9.07;88.02;99790.84;5001664;28;20016;-90
2021/06/15 04:15:35;;;;;;;;;;;;;;;9.09;87.49;99791.66;5001079;28;19957;-90
2021/06/15 04:18:01;;;;;;;;;;;;;;;9.03;87.27;99799.81;5001653;28;19936;-92
2021/06/15 04:20:31;;;;;;;;;;;;;;;9.07;86.90;99801.44;4988403;28;19921;-91
2021/06/15 04:23:08;;;;;;;;;;;;;;;9.10;86.62;99798.69;5003133;28;19930;-92
2021/06/15 04:25:37;;;;;;;;;;;;;;;9.03;86.93;99798.03;4984609;28;19928;-91
2021/06/15 07:39:07;;;;;;;;;;;;;;;9.15;89.42;99862.81;3340355;26;20012;-85
2021/06/15 07:41:32;;;;;;;;;;;;;;;9.15;89.55;99862.81;4981493;28;20024;-85
2021/06/15 07:43:58;;;;;;;;;;;;;;;9.04;90.16;99860.53;5000662;28;20208;-82
2021/06/15 07:46:23;;;;;;;;;;;;;;;9.09;90.12;99863.03;4983965;28;19965;-83
2021/06/15 07:48:51;;;;;;;;;;;;;;;9.08;90.25;99856.03;4983616;28;19996;-81
2021/06/15 07:51:16;;;;;;;;;;;;;;;9.17;89.90;99855.69;4983517;28;20016;-83
2021/06/15 07:53:43;;;;;;;;;;;;;;;9.18;90.30;99856.56;5001296;28;19998;-83
2021/06/15 07:56:09;;;;;;;;;;;;;;;9.24;89.72;99857.19;4984357;28;19988;-84
2021/06/15 07:58:34;;;;;;;;;;;;;;;9.20;89.89;99855.56;5000436;28;19983;-83
2021/06/15 08:01:00;;;;;;;;;;;;;;;9.20;89.51;99852.94;5000622;28;19922;-84
2021/06/15 08:03:26;;;;;;;;;;;;;;;9.13;90.34;99858.50;5000895;28;19926;-85
2021/06/15 08:05:52;;;;;;;;;;;;;;;9.10;90.36;99854.19;5001255;28;19930;-85
2021/06/15 08:08:18;;;;;;;;;;;;;;;9.29;89.98;99854.38;5001426;28;20257;-85
2021/06/15 08:10:43;;;;;;;;;;;;;;;9.19;90.45;99853.88;5000284;28;20025;-84
2021/06/15 08:13:09;;;;;;;;;;;;;;;9.14;89.88;99850.50;5001246;28;19956;-84
2021/06/15 08:15:34;;;;;;;;;;;;;;;9.24;90.30;99841.34;5000828;28;19967;-83
2021/06/15 08:17:59;;;;;;;;;;;;;;;9.21;89.50;99841.44;5001160;28;19984;-83
2021/06/15 08:20:25;;;;;;;;;;;;;;;9.18;89.47;99840.69;5000756;28;19988;-82
2021/06/15 08:22:50;;;;;;;;;;;;;;;9.24;89.30;99836.03;4982934;28;19922;-82
2021/06/15 08:25:16;;;;;;;;;;;;;;;9.21;89.31;99846.72;5000450;28;19921;-85
2021/06/15 08:27:41;;;;;;;;;;;;;;;9.20;90.16;99850.28;5000364;28;19979;-85
2021/06/15 08:30:07;;;;;;;;;;;;;;;9.26;89.81;99846.56;5001854;28;20008;-84
2021/06/15 08:32:33;;;;;;;;;;;;;;;12.72;98.86;99838.66;4972349;28;19926;-82
2021/06/15 08:34:58;;;;;;;;;;;;;;;12.31;94.28;99840.72;4978724;28;19922;-87
2021/06/15 08:37:24;;;;;;;;;;;;;;;11.00;96.16;99831.69;4983217;28;19926;-87
2021/06/15 08:39:49;;;;;;;;;;;;;;;10.57;94.15;99833.53;5002153;28;19921;-90
2021/06/15 08:42:25;;;;;;;;;;;;;;;10.30;92.50;99836.38;5002501;28;19930;-87
2021/06/15 08:44:51;;;;;;;;;;;;;;;10.22;91.08;99835.81;4984280;28;19973;-88
2021/06/15 08:47:16;;;;;;;;;;;;;;;10.11;90.67;99838.03;4981186;28;19922;-87
2021/06/15 08:49:45;;;;;;;;;;;;;;;10.11;89.62;99843.34;4990729;28;19922;-87
2021/06/15 08:52:10;;;;;;;;;;;;;;;10.00;89.21;99835.81;4985470;28;19929;-87
2021/06/15 08:54:38;;;;;;;;;;;;;;;9.87;89.14;99835.44;5001869;28;20041;-87
2021/06/15 08:57:04;;;;;;;;;;;;;;;9.94;88.71;99829.00;4984571;28;19992;-87
2021/06/15 08:59:29;;;;;;;;;;;;;;;9.84;87.60;99824.97;4983981;28;19921;-86
2021/06/15 09:01:56;;;;;;;;;;;;;;;9.93;87.61;99823.75;4980251;28;19976;-86
2021/06/15 09:04:22;;;;;;;;;;;;;;;9.86;86.64;99825.78;4973982;28;19929;-87
2021/06/15 09:06:49;;;;;;;;;;;;;;;9.87;86.91;99831.94;4996644;28;19918;-88
2021/06/15 09:09:15;;;;;;;;;;;;;;;9.77;86.58;99828.78;4968352;28;19930;-86
2021/06/15 09:11:50;;;;;;;;;;;;;;;9.86;86.71;99825.78;5001451;28;19933;-86
2021/06/15 09:14:15;;;;;;;;;;;;;;;9.81;86.66;99819.78;5001900;28;19933;-87
2021/06/15 09:16:47;;;;;;;;;;;;;;;9.82;87.08;99824.19;4984199;28;19921;-87
2021/06/15 09:19:16;;;;;;;;;;;;;;;9.82;87.34;99813.59;4984087;28;19925;-86
2021/06/15 09:21:43;;;;;;;;;;;;;;;9.92;86.73;99820.22;4984271;28;19922;-87
2021/06/15 09:24:16;;;;;;;;;;;;;;;9.79;88.04;99816.34;5001143;28;19922;-88
2021/06/15 09:26:54;;;;;;;;;;;;;;;9.83;87.19;99817.97;5001723;28;19921;-87
2021/06/15 09:29:22;;;;;;;;;;;;;;;9.81;87.23;99817.16;4984927;28;20024;-88
2021/06/15 09:31:52;;;;;;;;;;;;;;;9.81;87.51;99828.63;4984294;28;19921;-87
2021/06/15 09:34:17;;;;;;;;;;;;;;;9.68;88.17;99826.50;4984773;28;19921;-87
2021/06/15 09:36:43;;;;;;;;;;;;;;;9.79;88.00;99824.28;4985027;28;20000;-88
2021/06/15 09:39:09;;;;;;;;;;;;;;;9.83;87.07;99828.56;4984779;28;19968;-87
2021/06/15 09:41:44;;;;;;;;;;;;;;;9.84;87.42;99827.63;5001127;28;20304;-88
2021/06/15 09:44:16;;;;;;;;;;;;;;;9.86;87.02;99817.84;5000854;28;19945;-87
2021/06/15 09:46:42;;;;;;;;;;;;;;;9.84;87.61;99824.97;4984392;28;19948;-89
2021/06/15 09:49:09;;;;;;;;;;;;;;;9.77;87.55;99812.91;4984826;28;19971;-87
2021/06/15 09:51:35;;;;;;;;;;;;;;;9.85;87.35;99818.78;4984771;28;19925;-88
2021/06/15 09:54:00;;;;;;;;;;;;;;;9.79;86.27;99817.22;4974007;28;19933;-88
2021/06/15 09:56:26;;;;;;;;;;;;;;;9.85;86.83;99813.47;4975626;28;19921;-86
2021/06/15 09:58:52;;;;;;;;;;;;;;;9.78;87.21;99817.28;5001369;28;19988;-87
2021/06/15 10:01:34;;;;;;;;;;;;;;;9.78;86.88;99814.63;4983366;28;19937;-88
2021/06/15 10:04:08;;;;;;;;;;;;;;;9.90;86.53;99813.28;4963322;28;19930;-88
2021/06/15 10:06:38;;;;;;;;;;;;;;;9.83;86.82;99810.03;4981407;28;19940;-88
2021/06/15 10:09:04;;;;;;;;;;;;;;;9.89;86.48;99815.09;4980122;28;19933;-89
2021/06/15 10:11:30;;;;;;;;;;;;;;;9.77;87.34;99818.22;4974231;28;20238;-89
2021/06/15 10:13:57;;;;;;;;;;;;;;;9.83;86.61;99817.97;5000014;28;19922;-88
2021/06/15 10:16:23;;;;;;;;;;;;;;;9.80;86.88;99815.44;4964985;28;19922;-88
2021/06/15 10:18:49;;;;;;;;;;;;;;;10.40;87.84;99804.25;4968560;28;19937;-88
2021/06/15 10:21:19;;;;;;;;;;;;;;;10.22;88.71;99804.03;4978680;28;20475;-87
2021/06/15 10:23:44;;;;;;;;;;;;;;;10.22;87.23;99805.84;4981309;28;19932;-88
2021/06/15 10:26:11;;;;;;;;;;;;;;;10.10;86.48;99804.53;4998274;28;19922;-88
2021/06/15 10:28:37;;;;;;;;;;;;;;;10.23;88.82;99804.91;4990489;28;19922;-88
2021/06/15 10:31:03;;;;;;;;;;;;;;;9.97;86.97;99807.69;4972976;28;19981;-89
2021/06/15 10:33:41;;;;;;;;;;;;;;;10.08;86.84;99801.09;4980379;28;19922;-88
2021/06/15 10:36:08;;;;;;;;;;;;;;;10.58;89.60;99794.66;4999440;28;19922;-87
2021/06/15 10:38:35;;;;;;;;;;;;;;;10.52;86.84;99791.34;4997025;28;19940;-86
2021/06/15 10:41:03;;;;;;;;;;;;;;;10.34;87.58;99798.28;4989508;28;20301;-87
2021/06/15 10:43:30;;;;;;;;;;;;;;;10.41;86.29;99798.88;4980447;28;19921;-85
2021/06/15 10:46:06;;;;;;;;;;;;;;;10.36;87.14;99799.06;4990877;28;20324;-85
2021/06/15 10:48:36;;;;;;;;;;;;;;;10.29;86.70;99800.22;4993999;28;19928;-87
2021/06/15 10:51:16;;;;;;;;;;;;;;;10.24;86.51;99793.38;4993485;28;19922;-86
2021/06/15 10:53:44;;;;;;;;;;;;;;;10.41;86.72;99798.88;4995498;28;19964;-87
2021/06/15 10:56:11;;;;;;;;;;;;;;;10.36;86.00;99800.88;4981245;28;20293;-86
2021/06/15 10:58:41;;;;;;;;;;;;;;;10.31;85.38;99792.22;4999019;28;19973;-87
2021/06/15 11:01:13;;;;;;;;;;;;;;;10.27;86.13;99804.72;4997048;28;19925;-85
2021/06/15 11:03:51;;;;;;;;;;;;;;;10.34;86.49;99797.44;4981203;28;19933;-85
2021/06/15 11:06:36;;;;;;;;;;;;;;;10.37;85.88;99794.66;4993356;28;19926;-86
2021/06/15 11:09:25;;;;;;;;;;;;;;;10.32;85.81;99789.53;4990802;28;20024;-86
2021/06/15 11:12:01;;;;;;;;;;;;;;;10.28;85.57;99793.19;4979096;28;19922;-87
2021/06/15 11:14:26;;;;;;;;;;;;;;;10.28;85.93;99772.00;4975852;28;20272;-85
2021/06/15 11:16:55;;;;;;;;;;;;;;;10.36;85.26;99772.59;5003616;28;19914;-87
2021/06/15 11:19:20;;;;;;;;;;;;;;;10.29;86.38;99783.47;4992485;28;19926;-85
2021/06/15 11:21:46;;;;;;;;;;;;;;;10.27;86.46;99778.22;4978389;28;19922;-85
2021/06/15 11:24:24;;;;;;;;;;;;;;;10.23;86.40;99774.00;4981743;28;19988;-85
2021/06/15 11:26:50;;;;;;;;;;;;;;;10.32;85.95;99768.34;5000105;28;19922;-86
2021/06/15 11:29:38;;;;;;;;;;;;;;;10.29;86.62;99772.88;4985653;28;19926;-84
2021/06/15 11:32:13;;;;;;;;;;;;;;;10.27;86.11;99762.34;5001741;28;19937;-85
2021/06/15 11:34:40;;;;;;;;;;;;;;;10.29;86.29;99779.03;5002262;28;19932;-86
2021/06/15 11:37:40;;;;;;;;;;;;;;;10.39;86.55;99762.78;4971354;28;19926;-85
2021/06/15 11:40:18;;;;;;;;;;;;;;;10.32;86.95;99771.00;4920209;29;20286;-84
2021/06/15 11:43:10;;;;;;;;;;;;;;;10.34;86.69;99763.84;4974806;28;19922;-85
2021/06/15 11:45:37;;;;;;;;;;;;;;;10.40;86.48;99764.50;4971925;28;19926;-85
2021/06/15 11:48:22;;;;;;;;;;;;;;;10.29;85.99;99764.91;4978774;28;19922;-86
2021/06/15 11:50:49;;;;;;;;;;;;;;;10.34;85.70;99766.50;4969634;28;19964;-88
2021/06/15 11:53:14;;;;;;;;;;;;;;;10.36;86.31;99763.78;4999760;28;20007;-86
2021/06/15 11:55:41;;;;;;;;;;;;;;;10.36;86.02;99762.00;5001777;28;19940;-86
2021/06/15 11:58:15;;;;;;;;;;;;;;;10.45;85.67;99760.75;5000485;28;20182;-85
2021/06/15 12:00:45;;;;;;;;;;;;;;;10.43;85.81;99761.72;4983466;28;20170;-85
2021/06/15 12:03:21;;;;;;;;;;;;;;;10.44;85.50;99764.31;4998961;28;19969;-85
2021/06/15 12:05:47;;;;;;;;;;;;;;;10.32;85.36;99752.47;5000844;28;19932;-86
2021/06/15 12:08:13;;;;;;;;;;;;;;;10.47;84.63;99755.38;4967433;28;19922;-85
2021/06/15 12:10:39;;;;;;;;;;;;;;;10.45;84.74;99751.91;4986265;28;19922;-85
2021/06/15 12:13:04;;;;;;;;;;;;;;;10.43;85.56;99756.44;5000576;28;19961;-87
2021/06/15 12:15:38;;;;;;;;;;;;;;;10.47;84.95;99756.25;5001061;28;19976;-86
2021/06/15 12:18:04;;;;;;;;;;;;;;;10.84;84.59;99748.47;5000472;28;19925;-86
2021/06/15 12:20:33;;;;;;;;;;;;;;;10.65;85.22;99746.63;5000809;28;19922;-83
2021/06/15 12:22:59;;;;;;;;;;;;;;;10.55;85.31;99745.31;4984381;28;19972;-85
2021/06/15 12:25:30;;;;;;;;;;;;;;;10.47;85.79;99747.44;5000030;28;19922;-85
2021/06/15 12:28:09;;;;;;;;;;;;;;;10.45;84.64;99746.63;4986768;28;19922;-85
2021/06/15 12:30:42;;;;;;;;;;;;;;;10.54;84.18;99747.09;4964574;28;19930;-84
2021/06/15 12:33:08;;;;;;;;;;;;;;;10.65;84.33;99738.69;4981448;28;19964;-85
2021/06/15 12:35:34;;;;;;;;;;;;;;;10.52;84.45;99737.50;4963810;28;20325;-87
2021/06/15 12:38:09;;;;;;;;;;;;;;;10.44;84.48;99734.31;4980689;28;20029;-86
2021/06/15 12:40:36;;;;;;;;;;;;;;;10.41;84.59;99731.81;4964174;28;19928;-86
2021/06/15 12:43:02;;;;;;;;;;;;;;;10.38;85.01;99730.16;4981183;28;19925;-84
2021/06/15 12:45:34;;;;;;;;;;;;;;;10.46;84.58;99728.03;4981285;28;19929;-87
2021/06/15 12:48:01;;;;;;;;;;;;;;;10.48;85.16;99720.00;4963780;28;19926;-87
2021/06/15 12:50:27;;;;;;;;;;;;;;;10.60;83.46;99719.47;4963988;28;19922;-84
2021/06/15 12:53:02;;;;;;;;;;;;;;;10.53;85.38;99723.34;4963928;28;20025;-86
2021/06/15 12:55:28;;;;;;;;;;;;;;;10.55;84.62;99716.19;4980518;28;19991;-84
2021/06/15 12:57:57;;;;;;;;;;;;;;;10.51;84.33;99710.16;4980295;28;19989;-84
2021/06/15 13:00:23;;;;;;;;;;;;;;;10.52;85.10;99718.97;4963723;28;19922;-85
2021/06/15 13:02:48;;;;;;;;;;;;;;;10.48;84.99;99709.41;4970879;28;20092;-86
2021/06/15 13:05:19;;;;;;;;;;;;;;;10.54;85.06;99706.50;5000198;28;19933;-87
2021/06/15 13:07:57;;;;;;;;;;;;;;;10.52;85.95;99711.00;4996994;28;20217;-87
2021/06/15 13:10:24;;;;;;;;;;;;;;;10.60;84.69;99708.03;4999625;28;19926;-85
2021/06/15 13:12:56;;;;;;;;;;;;;;;10.59;84.09;99709.78;4971757;28;20267;-85
2021/06/15 13:15:22;;;;;;;;;;;;;;;10.56;84.48;99712.56;4976880;28;19932;-83
2021/06/15 13:17:59;;;;;;;;;;;;;;;10.63;84.28;99707.91;4978419;28;19926;-85
2021/06/15 13:20:25;;;;;;;;;;;;;;;10.49;85.47;99711.13;4983669;28;19937;-84
2021/06/15 13:22:51;;;;;;;;;;;;;;;10.57;84.52;99705.50;4972593;28;19922;-85
2021/06/15 13:25:21;;;;;;;;;;;;;;;10.65;84.79;99700.72;4977947;28;19922;-86
2021/06/15 13:27:50;;;;;;;;;;;;;;;10.64;85.36;99704.28;4988317;28;19922;-85
2021/06/15 13:30:18;;;;;;;;;;;;;;;10.58;85.72;99701.91;4992311;28;19922;-84
2021/06/15 13:32:45;;;;;;;;;;;;;;;10.59;85.47;99696.53;4975462;28;19956;-86
2021/06/15 13:35:37;;;;;;;;;;;;;;;10.61;85.59;99693.84;4994774;28;20332;-87
2021/06/15 13:38:04;;;;;;;;;;;;;;;10.54;85.16;99694.09;4982926;28;20202;-84
2021/06/15 13:40:41;;;;;;;;;;;;;;;10.62;85.12;99695.56;4980093;28;20009;-84
2021/06/15 13:43:13;;;;;;;;;;;;;;;10.56;85.36;99687.88;4972497;28;19922;-85
2021/06/15 13:45:45;;;;;;;;;;;;;;;10.53;85.26;99691.56;4994310;28;19944;-85
2021/06/15 13:48:11;;;;;;;;;;;;;;;10.65;84.47;99685.69;4982944;28;19953;-84
2021/06/15 13:50:40;;;;;;;;;;;;;;;10.67;85.39;99682.97;4995594;28;20276;-84
2021/06/15 13:53:07;;;;;;;;;;;;;;;10.64;84.61;99683.09;4987563;28;19922;-85
2021/06/15 13:55:36;;;;;;;;;;;;;;;10.67;85.13;99682.97;4990642;28;19926;-85
2021/06/15 13:58:06;;;;;;;;;;;;;;;10.56;85.09;99679.94;4973417;28;19936;-87
2021/06/15 14:00:31;;;;;;;;;;;;;;;10.56;85.12;99670.19;4986829;28;19929;-85
2021/06/15 14:02:57;;;;;;;;;;;;;;;10.67;85.02;99670.59;4990174;28;20047;-85
2021/06/15 14:05:22;;;;;;;;;;;;;;;10.69;84.08;99668.72;4967209;28;19922;-85
2021/06/15 14:07:48;;;;;;;;;;;;;;;10.63;85.53;99670.81;4983568;28;20317;-87
2021/06/15 14:10:14;;;;;;;;;;;;;;;10.68;84.81;99667.00;4978011;28;19930;-85
2021/06/15 14:12:41;;;;;;;;;;;;;;;10.67;84.94;99667.06;4990106;28;20222;-84
2021/06/15 14:15:06;;;;;;;;;;;;;;;10.68;85.22;99668.78;4992004;28;19922;-87
2021/06/15 14:17:32;;;;;;;;;;;;;;;10.67;84.59;99667.06;4990565;28;19930;-85
2021/06/15 14:19:58;;;;;;;;;;;;;;;10.61;84.70;99662.91;4984937;28;20354;-85
2021/06/15 14:22:23;;;;;;;;;;;;;;;10.72;85.09;99671.25;4993693;28;20269;-84
2021/06/15 14:24:48;;;;;;;;;;;;;;;10.71;84.50;99658.91;4990288;28;20046;-85
2021/06/15 14:27:14;;;;;;;;;;;;;;;10.72;85.13;99663.28;5000007;28;19933;-86
2021/06/15 14:29:39;;;;;;;;;;;;;;;10.79;84.69;99660.38;4976833;28;19950;-85
2021/06/15 14:32:05;;;;;;;;;;;;;;;10.70;84.98;99665.13;4994867;28;20182;-86
2021/06/15 14:34:30;;;;;;;;;;;;;;;10.69;84.25;99654.59;4986777;28;19926;-84
2021/06/15 14:36:56;;;;;;;;;;;;;;;10.72;85.77;99660.66;4995424;28;19973;-85
2021/06/15 14:39:21;;;;;;;;;;;;;;;10.90;83.92;99658.06;4969712;28;19937;-87
2021/06/15 14:41:47;;;;;;;;;;;;;;;10.82;84.18;99657.56;4980912;28;19966;-85
2021/06/15 14:44:13;;;;;;;;;;;;;;;10.80;84.40;99662.06;4994872;28;19922;-84
2021/06/15 14:46:40;;;;;;;;;;;;;;;10.87;86.89;99655.56;4998715;28;19921;-83
2021/06/15 14:49:05;;;;;;;;;;;;;;;11.94;97.22;99643.38;4982254;28;19926;-86
2021/06/15 14:51:32;;;;;;;;;;;;;;;12.44;100.00;99652.31;4998084;28;20043;-85
2021/06/15 14:54:04;;;;;;;;;;;;;;;12.37;100.00;99649.13;4998380;28;19922;-83
2021/06/15 14:56:37;;;;;;;;;;;;;;;12.38;100.00;99639.34;4996879;28;19932;-81
2021/06/15 14:59:03;;;;;;;;;;;;;;;12.53;100.00;99638.53;4999635;28;19925;-82
2021/06/15 15:01:29;;;;;;;;;;;;;;;12.67;100.00;99643.13;4982288;28;20360;-83
2021/06/15 15:03:55;;;;;;;;;;;;;;;12.68;100.00;99643.06;4998535;28;19953;-81
2021/06/15 15:06:20;;;;;;;;;;;;;;;12.79;100.00;99638.94;4967321;28;19953;-80
2021/06/15 15:08:46;;;;;;;;;;;;;;;12.78;100.00;99637.22;4997646;28;19933;-82
2021/06/15 15:11:12;;;;;;;;;;;;;;;12.91;100.00;99632.97;4998422;28;20193;-81
2021/06/15 15:13:37;;;;;;;;;;;;;;;13.00;100.00;99631.56;4980910;28;19926;-82
2021/06/15 15:16:03;;;;;;;;;;;;;;;13.00;100.00;99631.56;5000422;28;19925;-82
2021/06/15 15:18:30;;;;;;;;;;;;;;;13.08;100.00;99627.56;5000444;28;20006;-82
2021/06/15 15:20:56;;;;;;;;;;;;;;;13.06;100.00;99631.25;5000538;28;19933;-82
2021/06/15 15:23:23;;;;;;;;;;;;;;;13.13;100.00;99637.94;4973979;28;19922;-82
2021/06/15 15:25:49;;;;;;;;;;;;;;;13.11;100.00;99628.31;4993994;28;19994;-83
2021/06/15 15:28:15;;;;;;;;;;;;;;;13.20;100.00;99626.00;5002882;28;20343;-84
2021/06/15 15:30:41;;;;;;;;;;;;;;;13.12;100.00;99628.25;4977983;28;19918;-82
2021/06/15 15:33:07;;;;;;;;;;;;;;;13.13;100.00;99629.97;4982311;28;19921;-84
2021/06/15 15:35:33;;;;;;;;;;;;;;;13.31;100.00;99624.56;4998295;28;20205;-83
2021/06/15 15:37:59;;;;;;;;;;;;;;;13.33;100.00;99620.88;4977281;28;20293;-82
2021/06/15 15:40:25;;;;;;;;;;;;;;;13.35;100.00;99624.31;4982624;28;20013;-80
2021/06/15 15:42:50;;;;;;;;;;;;;;;13.42;100.00;99624.84;5001287;28;19955;-83
2021/06/15 15:45:17;;;;;;;;;;;;;;;13.49;100.00;99623.53;4991366;28;20394;-82
2021/06/15 15:47:43;;;;;;;;;;;;;;;13.44;100.00;99617.63;4997093;28;19934;-82
2021/06/15 15:50:10;;;;;;;;;;;;;;;13.45;100.00;99611.34;4993694;28;19981;-83
2021/06/15 15:52:36;;;;;;;;;;;;;;;13.52;100.00;99609.19;4991580;28;19922;-81
2021/06/15 15:55:02;;;;;;;;;;;;;;;13.59;100.00;99607.88;4998567;28;19932;-82
2021/06/15 15:57:27;;;;;;;;;;;;;;;13.60;100.00;99612.25;4977606;28;19937;-82
2021/06/15 15:59:53;;;;;;;;;;;;;;;13.71;100.00;99611.66;4978306;28;19930;-83
2021/06/15 16:02:18;;;;;;;;;;;;;;;13.65;100.00;99612.00;4997287;28;19983;-82
2021/06/15 16:04:44;;;;;;;;;;;;;;;13.69;100.00;99608.19;4995968;28;19945;-83
2021/06/15 16:07:10;;;;;;;;;;;;;;;13.71;100.00;99611.66;4994525;28;19929;-82
2021/06/15 16:09:35;;;;;;;;;;;;;;;13.81;100.00;99602.16;4995369;28;19980;-82
2021/06/15 16:12:01;;;;;;;;;;;;;;;13.78;100.00;99602.34;4994484;28;19929;-82
2021/06/15 16:14:26;;;;;;;;;;;;;;;13.84;100.00;99603.78;4981990;28;20293;-84
2021/06/15 16:16:52;;;;;;;;;;;;;;;13.81;100.00;99607.47;4994905;28;19930;-84
2021/06/15 16:19:19;;;;;;;;;;;;;;;13.80;100.00;99603.97;4975796;28;20320;-84
2021/06/15 16:21:46;;;;;;;;;;;;;;;13.80;100.00;99608.41;4970662;28;19921;-84
2021/06/15 16:24:11;;;;;;;;;;;;;;;14.10;100.00;99599.56;4978255;28;19946;-85
2021/06/15 16:26:39;;;;;;;;;;;;;;;13.82;98.26;99598.56;4974173;28;19930;-85
2021/06/15 16:29:05;;;;;;;;;;;;;;;13.53;98.11;99594.91;4977306;28;19929;-84
2021/06/15 16:31:31;;;;;;;;;;;;;;;13.44;98.46;99594.50;4971255;28;20047;-81
2021/06/15 16:33:56;;;;;;;;;;;;;;;13.23;99.35;99593.06;4971756;28;19964;-81
2021/06/15 16:36:23;;;;;;;;;;;;;;;13.18;99.91;99592.44;4996015;28;19968;-83
2021/06/15 16:38:49;;;;;;;;;;;;;;;13.29;97.97;99590.06;4979962;28;20391;-83
2021/06/15 16:41:15;;;;;;;;;;;;;;;13.28;100.00;99591.00;4979494;28;19957;-83
2021/06/15 16:43:40;;;;;;;;;;;;;;;13.32;98.07;99592.50;4977842;28;20048;-82
2021/06/15 16:46:06;;;;;;;;;;;;;;;13.25;98.47;99594.66;4971831;28;19961;-86
2021/06/15 16:48:32;;;;;;;;;;;;;;;13.25;99.22;99583.19;4984623;28;19929;-84
2021/06/15 16:50:58;;;;;;;;;;;;;;;13.34;98.39;99589.78;4998521;28;19922;-83
2021/06/15 16:53:26;;;;;;;;;;;;;;;13.33;99.00;99591.59;4996645;28;19936;-85
2021/06/15 16:55:52;;;;;;;;;;;;;;;13.32;98.33;99584.53;4999125;28;20000;-83
2021/06/15 16:58:17;;;;;;;;;;;;;;;13.44;97.42;99591.84;4975964;28;20013;-82
2021/06/15 17:00:49;;;;;;;;;;;;;;;13.53;96.92;99587.81;4995169;28;19933;-82
2021/06/15 17:03:22;;;;;;;;;;;;;;;13.55;96.62;99583.25;4982233;28;19929;-82
2021/06/15 17:05:47;;;;;;;;;;;;;;;13.63;95.91;99588.97;4977014;28;20375;-82
2021/06/15 17:08:13;;;;;;;;;;;;;;;13.97;95.10;99586.97;4972294;28;19965;-82
2021/06/15 17:10:39;;;;;;;;;;;;;;;13.51;95.17;99589.69;4995871;28;19968;-82
2021/06/15 17:13:07;;;;;;;;;;;;;;;13.35;96.18;99587.06;4980457;28;19952;-82
2021/06/15 17:15:33;;;;;;;;;;;;;;;13.27;94.85;99587.47;4976497;28;19930;-82
2021/06/15 17:18:03;;;;;;;;;;;;;;;13.32;95.21;99586.34;4990491;28;19948;-82
2021/06/15 17:20:30;;;;;;;;;;;;;;;13.33;94.46;99585.44;4996390;28;19930;-83
2021/06/15 17:22:57;;;;;;;;;;;;;;;13.34;93.99;99582.69;4973696;28;19922;-82
2021/06/15 17:25:23;;;;;;;;;;;;;;;13.47;92.71;99584.66;4972943;28;20417;-81
2021/06/15 17:27:49;;;;;;;;;;;;;;;13.47;92.59;99584.66;4972473;28;19958;-81
2021/06/15 17:30:17;;;;;;;;;;;;;;;13.47;91.84;99580.19;4978754;28;20344;-82
2021/06/15 17:32:43;;;;;;;;;;;;;;;13.63;91.38;99582.81;4995849;28;19993;-82
2021/06/15 17:35:10;;;;;;;;;;;;;;;13.60;90.65;99583.81;4975877;28;19933;-86
2021/06/15 17:37:38;;;;;;;;;;;;;;;13.71;90.22;99585.88;4981252;28;19925;-82
2021/06/15 17:40:06;;;;;;;;;;;;;;;13.74;89.77;99580.38;4985463;28;19922;-83
2021/06/15 17:42:32;;;;;;;;;;;;;;;13.74;89.73;99580.38;4989512;28;19922;-82
2021/06/15 17:44:58;;;;;;;;;;;;;;;13.78;90.11;99581.03;4992597;28;20015;-82
2021/06/15 17:47:24;;;;;;;;;;;;;;;13.79;90.41;99572.09;4995307;28;20019;-82
2021/06/15 17:49:50;;;;;;;;;;;;;;;13.84;91.57;99569.16;4995026;28;19953;-85
2021/06/15 17:52:16;;;;;;;;;;;;;;;13.96;90.07;99568.41;4979205;28;19921;-81
2021/06/15 17:54:41;;;;;;;;;;;;;;;13.89;90.27;99573.25;4998448;28;20186;-81
2021/06/15 17:57:09;;;;;;;;;;;;;;;13.94;90.12;99570.31;4993861;28;20275;-83
2021/06/15 17:59:36;;;;;;;;;;;;;;;13.95;89.74;99574.72;4981531;28;20540;-85
2021/06/15 18:02:01;;;;;;;;;;;;;;;13.93;89.85;99573.94;4978634;28;20273;-82
2021/06/15 18:04:36;;;;;;;;;;;;;;;13.91;90.68;99570.50;4978302;28;19933;-82
2021/06/15 18:07:05;;;;;;;;;;;;;;;13.91;91.02;99578.50;4994549;28;19921;-82
2021/06/15 18:09:30;;;;;;;;;;;;;;;14.00;91.32;99575.28;4980093;28;19940;-84
2021/06/15 18:11:57;;;;;;;;;;;;;;;14.06;91.08;99574.06;4998084;28;19930;-83
2021/06/15 18:14:24;;;;;;;;;;;;;;;14.07;91.57;99568.66;4980375;28;19922;-85
2021/06/15 18:16:49;;;;;;;;;;;;;;;14.10;92.05;99567.59;4995576;28;19922;-82
2021/06/15 18:19:15;;;;;;;;;;;;;;;14.13;91.99;99578.06;4999743;28;19934;-84
2021/06/15 18:21:40;;;;;;;;;;;;;;;14.20;91.91;99567.88;4999438;28;19985;-84
2021/06/15 18:24:06;;;;;;;;;;;;;;;14.24;91.88;99562.25;4995664;28;19922;-83
2021/06/15 18:26:31;;;;;;;;;;;;;;;14.31;92.25;99562.72;4983972;28;19930;-85
2021/06/15 18:28:57;;;;;;;;;;;;;;;14.80;90.03;99569.50;4999934;28;19941;-84
2021/06/15 18:31:25;;;;;;;;;;;;;;;14.73;90.83;99569.03;4994295;28;19949;-85
2021/06/15 18:33:51;;;;;;;;;;;;;;;14.80;89.82;99565.00;5005094;28;19922;-84
2021/06/15 18:36:17;;;;;;;;;;;;;;;14.81;90.42;99563.22;4984416;28;19933;-84
2021/06/15 18:38:43;;;;;;;;;;;;;;;14.88;89.98;99564.53;5003406;28;20237;-81
2021/06/15 18:41:09;;;;;;;;;;;;;;;14.92;89.71;99562.50;5009609;28;19985;-85
2021/06/15 18:43:34;;;;;;;;;;;;;;;14.90;90.17;99554.59;4984872;28;19926;-85
2021/06/15 18:46:00;;;;;;;;;;;;;;;14.99;89.64;99558.50;4983604;28;20218;-84
2021/06/15 18:48:25;;;;;;;;;;;;;;;15.16;89.05;99568.09;4982998;28;19948;-84
2021/06/15 18:50:51;;;;;;;;;;;;;;;14.74;87.42;99564.56;4984084;28;19964;-84
2021/06/15 18:53:18;;;;;;;;;;;;;;;14.56;86.51;99567.41;4988460;28;20274;-84
2021/06/15 18:55:44;;;;;;;;;;;;;;;14.54;86.31;99553.31;4979629;28;19976;-84
2021/06/15 18:58:10;;;;;;;;;;;;;;;14.47;85.64;99563.50;5000207;28;19934;-84
2021/06/15 19:00:38;;;;;;;;;;;;;;;14.51;84.41;99564.16;4983298;28;19933;-82
2021/06/15 19:03:05;;;;;;;;;;;;;;;14.56;84.59;99562.06;4997046;28;20278;-86
2021/06/15 19:05:33;;;;;;;;;;;;;;;14.58;84.03;99554.81;4982015;28;20225;-82
2021/06/15 19:07:59;;;;;;;;;;;;;;;14.59;83.94;99553.88;4993215;28;20325;-82
2021/06/15 19:10:24;;;;;;;;;;;;;;;14.68;83.35;99556.00;4979173;28;19941;-84
2021/06/15 19:12:50;;;;;;;;;;;;;;;14.73;83.20;99561.03;4978459;28;19933;-84